Profiler II — CZ2496 — position and weather

sailwx.info

Track history (hours):
 
Tides and Currents Weather Stations Pressure Air Temp Water Temp Dewpoint Dewpoint Depression Visibility Wind Speed Wind Dir Waves Ship Positions

Profiler II

Last reported at 2016-Aug-25 22:33 UTC. Time now 2016-Aug-28 12:07 UTC.
Position N 49°09' W 122°57'.

Type: Other ship. MMSI: 316002054.

Date/timePositionNaut miles runAvg speedWind from/ knotsBaromVisibWave heightAir tempDewpointWater temp
2016-Aug-25 22:33N 49°09' W 122°57'9 9.0
2016-Aug-25 21:33N 49°07' W 123°10'2 2.3
2016-Aug-25 20:33N 49°08' W 123°14'0 0.3
2016-Aug-25 19:34N 49°08' W 123°13'0 0.2
2016-Aug-25 18:33N 49°08' W 123°14'0 0.5
2016-Aug-25 17:33N 49°08' W 123°13'1 0.7
2016-Aug-25 16:33N 49°08' W 123°14'2 0.1
2016-Aug-24 21:32N 49°07' W 123°11'3 3.3
2016-Aug-24 20:33N 49°07' W 123°06'1 0.9
2016-Aug-24 19:33N 49°07' W 123°05'2 2.0
2016-Aug-24 18:33N 49°09' W 123°03'1 0.6
2016-Aug-24 17:33N 49°08' W 123°03'2 2.0
2016-Aug-24 16:34N 49°07' W 123°06'3 0.2
2016-Aug-23 23:04N 49°07' W 123°11'510.1
2016-Aug-23 22:33N 49°08' W 123°03'3 2.7
2016-Aug-23 21:33N 49°09' W 122°59'0 0.1
2016-Aug-23 20:33N 49°09' W 122°59'0 0.2
2016-Aug-23 19:33N 49°09' W 122°59'1 0.6
2016-Aug-23 18:34N 49°09' W 122°58'0 0.2
2016-Aug-23 17:33N 49°09' W 122°58'0 0.1
2016-Aug-23 16:33N 49°09' W 122°58'2 2.0
2016-Aug-23 15:33N 49°10' W 122°56'  
Track history (hours):
 
Tides and Currents Weather Stations Pressure Air Temp Water Temp Dewpoint Dewpoint Depression Visibility Wind Speed Wind Dir Waves Ship Positions

Profiler II

Last reported at 2016-Aug-25 22:33 UTC. Time now 2016-Aug-28 12:07 UTC.
Position N 49°09' W 122°57'.

Type: Other ship. MMSI: 316002054.

Date/timePositionNaut miles runAvg speedWind from/ knotsBaromVisibWave heightAir tempDewpointWater temp
2016-Aug-25 22:33N 49°09' W 122°57'9 9.0
2016-Aug-25 21:33N 49°07' W 123°10'2 2.3
2016-Aug-25 20:33N 49°08' W 123°14'0 0.3
2016-Aug-25 19:34N 49°08' W 123°13'0 0.2
2016-Aug-25 18:33N 49°08' W 123°14'0 0.5
2016-Aug-25 17:33N 49°08' W 123°13'1 0.7
2016-Aug-25 16:33N 49°08' W 123°14'2 0.1
2016-Aug-24 21:32N 49°07' W 123°11'3 3.3
2016-Aug-24 20:33N 49°07' W 123°06'1 0.9
2016-Aug-24 19:33N 49°07' W 123°05'2 2.0
2016-Aug-24 18:33N 49°09' W 123°03'1 0.6
2016-Aug-24 17:33N 49°08' W 123°03'2 2.0
2016-Aug-24 16:34N 49°07' W 123°06'3 0.2
2016-Aug-23 23:04N 49°07' W 123°11'510.1
2016-Aug-23 22:33N 49°08' W 123°03'3 2.7
2016-Aug-23 21:33N 49°09' W 122°59'0 0.1
2016-Aug-23 20:33N 49°09' W 122°59'0 0.2
2016-Aug-23 19:33N 49°09' W 122°59'1 0.6
2016-Aug-23 18:34N 49°09' W 122°58'0 0.2
2016-Aug-23 17:33N 49°09' W 122°58'0 0.1
2016-Aug-23 16:33N 49°09' W 122°58'2 2.0
2016-Aug-23 15:33N 49°10' W 122°56'  

Dump ship's entire track history